createdAt,value
2023-03-15T00:00:18.492Z,99921.72
2023-03-15T00:02:57.968Z,100006.16
2023-03-15T00:05:27.153Z,100051.00
2023-03-15T00:07:57.319Z,100008.97
2023-03-15T00:10:34.134Z,100061.66
2023-03-15T00:13:01.646Z,100069.53
2023-03-15T00:18:14.573Z,100070.59
2023-03-15T00:20:43.820Z,100063.91
2023-03-15T00:23:13.926Z,100050.28
2023-03-15T00:25:48.560Z,100086.50
2023-03-15T00:28:19.285Z,100075.34
2023-03-15T00:31:10.716Z,100060.03
2023-03-15T00:33:49.928Z,100086.84
2023-03-15T00:39:02.530Z,100110.38
2023-03-15T00:41:38.308Z,100109.53
2023-03-15T00:44:05.186Z,100106.97
2023-03-15T00:46:34.499Z,100071.91
2023-03-15T00:49:07.314Z,100105.44
2023-03-15T00:54:25.668Z,100098.94
2023-03-15T00:56:56.414Z,100043.88
2023-03-15T00:59:26.082Z,100114.66
2023-03-15T01:01:55.448Z,100129.34
2023-03-15T01:04:51.850Z,100026.09
2023-03-15T01:07:23.290Z,100139.94
2023-03-15T01:09:50.434Z,100141.78
2023-03-15T01:12:17.844Z,100130.63
2023-03-15T01:14:51.588Z,100144.56
2023-03-15T01:17:22.784Z,100137.66
2023-03-15T01:19:54.136Z,100091.03
2023-03-15T01:22:27.665Z,100149.66
2023-03-15T01:24:58.153Z,100143.53
2023-03-15T01:27:31.754Z,100147.84
2023-03-15T01:30:00.045Z,100155.66
2023-03-15T01:33:07.464Z,100143.50
2023-03-15T01:38:37.563Z,100096.13
2023-03-15T01:41:31.794Z,100108.38
2023-03-15T01:44:12.917Z,100156.78
2023-03-15T01:46:43.728Z,100159.59
2023-03-15T01:49:29.171Z,100156.09
2023-03-15T01:52:14.549Z,100170.09
2023-03-15T01:55:03.649Z,100165.00
2023-03-15T01:57:43.473Z,100181.41
2023-03-15T02:00:25.179Z,100069.31
2023-03-15T02:03:07.229Z,100060.72
2023-03-15T02:05:49.340Z,100178.88
2023-03-15T02:08:27.067Z,100190.19
2023-03-15T02:11:01.612Z,100186.69
2023-03-15T02:13:44.472Z,100173.81
2023-03-15T02:19:40.464Z,100081.44
2023-03-15T02:22:30.514Z,100183.09
2023-03-15T02:25:14.336Z,100156.38
2023-03-15T02:27:42.538Z,100150.19
2023-03-15T02:30:32.507Z,100182.06
2023-03-15T02:33:02.243Z,100158.88
2023-03-15T02:35:32.749Z,100103.84
2023-03-15T02:38:00.672Z,100175.50
2023-03-15T02:40:29.809Z,100190.06
2023-03-15T02:43:05.469Z,100132.13
2023-03-15T02:45:45.212Z,100183.81
2023-03-15T02:48:20.755Z,100081.44
2023-03-15T02:53:45.620Z,100141.31
2023-03-15T02:56:14.440Z,100162.97
2023-03-15T02:59:01.148Z,100126.75
2023-03-15T03:01:30.357Z,100156.88
2023-03-15T03:04:07.538Z,100193.81
2023-03-15T03:09:20.175Z,100210.94
2023-03-15T03:11:51.175Z,100160.09
2023-03-15T03:14:21.666Z,100181.66
2023-03-15T03:16:48.602Z,100114.34
2023-03-15T03:19:15.483Z,100210.94
2023-03-15T03:24:29.775Z,100239.44
2023-03-15T03:27:03.878Z,100206.88
2023-03-15T03:29:34.614Z,100211.22
2023-03-15T03:32:04.377Z,100250.09
2023-03-15T03:34:43.683Z,100145.75
2023-03-15T03:37:20.324Z,100201.09
2023-03-15T03:39:55.412Z,100242.59
2023-03-15T03:42:30.470Z,100157.94
2023-03-15T03:45:00.265Z,100204.56
2023-03-15T03:50:33.614Z,100225.66
2023-03-15T03:53:06.487Z,100232.72
2023-03-15T03:55:41.661Z,100274.09
2023-03-15T03:58:17.831Z,100189.38
2023-03-15T04:00:47.534Z,100279.88
2023-03-15T04:03:17.720Z,100283.31
2023-03-15T04:05:47.122Z,100286.81
2023-03-15T04:08:13.819Z,100286.00
2023-03-15T04:10:41.351Z,100285.91
2023-03-15T04:13:10.557Z,100219.44
2023-03-15T04:18:27.583Z,100253.94
2023-03-15T04:21:00.156Z,100202.13
2023-03-15T04:26:11.972Z,100262.63
2023-03-15T04:28:46.787Z,100295.50
2023-03-15T04:31:15.284Z,100291.41
2023-03-15T04:33:44.813Z,100311.38
2023-03-15T04:36:23.789Z,100255.13
2023-03-15T04:38:55.477Z,100209.41
2023-03-15T04:41:25.507Z,100306.91
2023-03-15T04:44:12.084Z,100305.94
2023-03-15T04:46:48.721Z,100305.91
2023-03-15T04:52:09.911Z,100254.13
2023-03-15T04:54:37.882Z,100304.88
2023-03-15T04:57:06.127Z,100185.69
2023-03-15T04:59:40.560Z,100247.00
2023-03-15T05:04:58.258Z,100282.47
2023-03-15T05:07:46.777Z,100241.09
2023-03-15T05:10:18.935Z,100218.66
2023-03-15T05:13:20.152Z,100288.69
2023-03-15T05:16:22.740Z,100309.41
2023-03-15T05:18:50.189Z,100214.50
2023-03-15T05:21:17.797Z,100319.00
2023-03-15T05:23:47.790Z,100323.31
2023-03-15T05:26:22.903Z,100264.53
2023-03-15T05:28:53.657Z,100314.50
2023-03-15T05:31:24.168Z,100260.25
2023-03-15T05:33:55.257Z,100303.44
2023-03-15T05:36:22.952Z,100322.53
2023-03-15T05:38:53.110Z,100332.06
2023-03-15T05:41:21.358Z,100299.25
2023-03-15T05:43:48.626Z,100297.66
2023-03-15T05:46:15.877Z,100313.41
2023-03-15T05:48:43.214Z,100317.84
2023-03-15T05:51:14.992Z,100336.13
2023-03-15T05:56:32.824Z,100350.97
2023-03-15T05:59:10.967Z,100340.66
2023-03-15T06:04:31.736Z,100351.63
2023-03-15T06:07:06.751Z,100263.41
2023-03-15T06:15:24.445Z,100330.22
2023-03-15T06:32:13.684Z,100379.97
2023-03-15T06:44:04.819Z,100335.78
2023-03-15T07:08:10.682Z,100410.13
2023-03-15T08:00:38.741Z,100445.06
2023-03-15T08:13:54.402Z,100462.63
2023-03-15T08:26:28.197Z,100472.59
2023-03-15T08:32:22.498Z,100483.53
2023-03-15T08:38:27.061Z,100497.25
2023-03-15T09:04:57.430Z,100531.09
2023-03-15T09:07:37.129Z,100545.72
2023-03-15T09:12:57.279Z,100551.63
2023-03-15T09:15:27.481Z,100550.47
2023-03-15T09:23:46.980Z,100492.22
2023-03-15T09:26:13.925Z,100537.97
2023-03-15T09:28:46.876Z,100543.19
2023-03-15T09:31:17.483Z,100526.69
2023-03-15T09:36:47.194Z,100475.66
2023-03-15T09:39:18.467Z,100558.22
2023-03-15T09:42:24.446Z,100557.16
2023-03-15T09:45:17.777Z,100568.94
2023-03-15T09:48:12.709Z,100562.38
2023-03-15T09:51:40.458Z,100576.53
2023-03-15T09:54:15.250Z,100577.34
2023-03-15T10:00:18.276Z,100561.91
2023-03-15T10:06:17.638Z,100578.25
2023-03-15T10:19:12.897Z,100591.28
2023-03-15T10:25:14.945Z,100574.81
2023-03-15T10:30:38.324Z,100605.34
2023-03-15T10:36:43.315Z,100595.16
2023-03-15T10:48:37.226Z,100585.88
2023-03-15T10:54:34.548Z,100585.03
2023-03-15T10:57:28.340Z,100569.25
2023-03-15T11:00:08.725Z,100549.13
2023-03-15T11:02:40.864Z,100497.66
2023-03-15T11:05:12.420Z,100549.81
2023-03-15T11:07:57.555Z,100579.88
2023-03-15T11:10:38.959Z,100560.53
2023-03-15T11:13:24.873Z,100565.16
2023-03-15T11:24:10.493Z,100613.53
2023-03-15T11:26:48.448Z,100588.94
2023-03-15T11:29:23.280Z,100611.91
2023-03-15T11:31:58.123Z,100608.63
2023-03-15T11:35:04.378Z,100614.63
2023-03-15T11:38:06.238Z,100599.94
2023-03-15T11:50:32.669Z,100618.03
2023-03-15T11:53:07.475Z,100604.81
2023-03-15T11:55:38.001Z,100625.44
2023-03-15T11:58:29.426Z,100631.28
2023-03-15T12:01:03.685Z,100636.53
2023-03-15T12:04:15.891Z,100634.78
2023-03-15T12:06:44.261Z,100596.94
2023-03-15T12:09:47.435Z,100631.72
2023-03-15T12:12:29.358Z,100621.31
2023-03-15T12:15:28.013Z,100630.97
2023-03-15T12:20:45.968Z,100631.81
2023-03-15T12:23:31.951Z,100628.31
2023-03-15T12:26:07.442Z,100652.47
2023-03-15T12:29:07.933Z,100630.72
2023-03-15T12:32:23.670Z,100652.38
2023-03-15T12:35:09.453Z,100646.16
2023-03-15T12:37:43.752Z,100651.53
2023-03-15T12:40:26.880Z,100647.03
2023-03-15T12:43:04.927Z,100655.47
2023-03-15T12:48:41.113Z,100637.69
2023-03-15T12:51:16.822Z,100644.28
2023-03-15T12:54:12.448Z,100626.38
2023-03-15T12:56:50.897Z,100661.47
2023-03-15T12:59:27.316Z,100654.69
2023-03-15T13:02:03.952Z,100654.06
2023-03-15T13:07:51.944Z,100652.69
2023-03-15T13:13:21.727Z,100653.09
2023-03-15T13:16:31.269Z,100645.75
2023-03-15T13:19:21.790Z,100624.47
2023-03-15T13:22:34.808Z,100645.81
2023-03-15T13:25:25.535Z,100638.69
2023-03-15T13:27:56.621Z,100643.41
2023-03-15T13:30:38.459Z,100646.56
2023-03-15T13:33:31.849Z,100646.97
2023-03-15T13:36:31.589Z,100650.63
2023-03-15T13:39:01.818Z,100637.72
2023-03-15T13:41:35.936Z,100641.22
2023-03-15T13:44:31.159Z,100640.03
2023-03-15T13:47:05.526Z,100638.19
2023-03-15T13:55:08.791Z,100633.66
2023-03-15T13:57:38.813Z,100591.41
2023-03-15T14:00:20.227Z,100621.59
2023-03-15T14:03:02.648Z,100629.78
2023-03-15T14:08:52.724Z,100637.09
2023-03-15T14:14:26.805Z,100628.06
2023-03-15T14:17:05.771Z,100615.78
2023-03-15T14:22:27.624Z,100602.91
2023-03-15T14:24:58.251Z,100633.03
2023-03-15T14:27:32.479Z,100646.41
2023-03-15T14:30:45.834Z,100634.69
2023-03-15T14:33:42.782Z,100599.75
2023-03-15T14:36:37.005Z,100590.59
2023-03-15T14:39:07.907Z,100631.78
2023-03-15T14:41:44.126Z,100611.94
2023-03-15T14:44:20.900Z,100643.41
2023-03-15T14:49:59.948Z,100657.47
2023-03-15T14:52:53.849Z,100661.91
2023-03-15T14:58:47.724Z,100639.78
2023-03-15T15:07:55.112Z,100677.06
2023-03-15T15:10:32.927Z,100671.50
2023-03-15T15:13:07.305Z,100688.84
2023-03-15T15:18:51.258Z,100621.91
2023-03-15T15:21:51.445Z,100687.78
2023-03-15T15:27:17.869Z,100637.31
2023-03-15T15:33:01.923Z,100692.03
2023-03-15T16:50:10.432Z,100721.41
2023-03-15T17:43:14.240Z,100778.31
2023-03-15T17:46:03.162Z,100762.97
2023-03-15T17:48:34.620Z,100770.00
2023-03-15T18:00:06.154Z,100795.44
2023-03-15T18:02:40.719Z,100773.13
2023-03-15T18:08:34.821Z,100797.50
2023-03-15T18:20:41.681Z,100813.47
2023-03-15T18:25:55.977Z,100827.66
2023-03-15T18:31:09.581Z,100778.41
2023-03-15T18:33:40.091Z,100766.28
2023-03-15T18:36:16.979Z,100829.66
2023-03-15T18:44:40.412Z,100828.78
2023-03-15T18:47:12.848Z,100727.47
2023-03-15T18:52:41.886Z,100800.19
2023-03-15T18:55:20.731Z,100729.25
2023-03-15T18:57:54.181Z,100838.56
2023-03-15T19:00:40.311Z,100827.41
2023-03-15T19:03:32.731Z,100807.56
2023-03-15T19:06:12.112Z,100819.69
2023-03-15T19:14:55.010Z,100825.06
2023-03-15T19:17:27.512Z,100827.72
2023-03-15T19:20:00.047Z,100832.97
2023-03-15T19:22:30.614Z,100837.47
2023-03-15T19:25:00.477Z,100802.81
2023-03-15T19:27:37.678Z,100853.25
2023-03-15T19:35:58.576Z,100851.47
2023-03-15T19:47:32.640Z,100865.59
2023-03-15T19:50:16.207Z,100873.50
2023-03-15T19:58:18.391Z,100814.72
2023-03-15T20:00:46.174Z,100841.66
2023-03-15T20:11:59.476Z,100877.28
2023-03-15T20:39:49.248Z,100898.63
2023-03-15T20:42:21.945Z,100904.69
2023-03-15T20:50:35.320Z,100859.69
2023-03-15T21:16:08.006Z,100895.47
2023-03-15T22:08:44.363Z,100929.53
2023-03-15T22:10:20.748Z,100888.72
2023-03-15T22:13:13.300Z,100928.72
2023-03-15T22:15:51.425Z,100888.72
2023-03-15T22:18:37.507Z,100801.00
2023-03-15T22:21:08.799Z,100864.38
2023-03-15T22:23:43.040Z,100866.97
2023-03-15T22:26:18.842Z,100866.06
2023-03-15T22:28:56.317Z,100875.69
2023-03-15T22:31:32.784Z,100917.34
2023-03-15T22:37:12.877Z,100886.94
2023-03-15T22:42:37.270Z,100882.63
2023-03-15T22:53:40.005Z,100919.19
2023-03-15T22:56:08.791Z,100913.09
2023-03-15T22:58:36.324Z,100902.69
2023-03-15T23:06:49.210Z,100856.63
2023-03-15T23:15:11.301Z,100896.59
2023-03-15T23:17:47.178Z,100900.94
2023-03-15T23:20:20.153Z,100922.69
2023-03-15T23:22:48.225Z,100924.41
2023-03-15T23:25:24.220Z,100891.41
2023-03-15T23:27:59.923Z,100930.50
2023-03-15T23:30:34.459Z,100933.09
2023-03-15T23:33:13.954Z,100916.56
2023-03-15T23:35:45.547Z,100931.38
2023-03-15T23:38:14.472Z,100830.53
2023-03-15T23:40:46.566Z,100933.13
2023-03-15T23:43:18.947Z,100907.00
2023-03-15T23:45:49.992Z,100940.94
2023-03-15T23:48:39.264Z,100929.59
2023-03-15T23:51:16.171Z,100887.84
2023-03-15T23:53:45.698Z,100926.94
2023-03-15T23:56:23.313Z,100949.53
